sensor_id;sensor_type;location;lat;lon;timestamp;P1;durP1;ratioP1;P2;durP2;ratioP2
8419;SDS011;4247;48.550;8.822;2024-03-22T00:02:13;6.90;;;3.97;;
8419;SDS011;4247;48.550;8.822;2024-03-22T00:04:40;5.17;;;3.77;;
8419;SDS011;4247;48.550;8.822;2024-03-22T00:07:06;4.20;;;3.40;;
8419;SDS011;4247;48.550;8.822;2024-03-22T00:09:32;6.87;;;4.10;;
8419;SDS011;4247;48.550;8.822;2024-03-22T00:11:58;8.03;;;4.30;;
8419;SDS011;4247;48.550;8.822;2024-03-22T00:14:25;10.13;;;4.80;;
8419;SDS011;4247;48.550;8.822;2024-03-22T00:16:52;7.77;;;3.60;;
8419;SDS011;4247;48.550;8.822;2024-03-22T00:19:19;7.53;;;5.37;;
8419;SDS011;4247;48.550;8.822;2024-03-22T00:21:44;9.00;;;4.80;;
8419;SDS011;4247;48.550;8.822;2024-03-22T00:24:11;7.77;;;4.57;;
8419;SDS011;4247;48.550;8.822;2024-03-22T00:26:37;7.83;;;4.13;;
8419;SDS011;4247;48.550;8.822;2024-03-22T00:29:04;6.83;;;4.93;;
8419;SDS011;4247;48.550;8.822;2024-03-22T00:31:30;6.27;;;4.07;;
8419;SDS011;4247;48.550;8.822;2024-03-22T00:33:58;5.23;;;4.57;;
8419;SDS011;4247;48.550;8.822;2024-03-22T00:36:23;4.23;;;3.43;;
8419;SDS011;4247;48.550;8.822;2024-03-22T00:38:50;6.57;;;4.37;;
8419;SDS011;4247;48.550;8.822;2024-03-22T00:41:16;6.07;;;4.70;;
8419;SDS011;4247;48.550;8.822;2024-03-22T00:43:42;4.93;;;4.43;;
8419;SDS011;4247;48.550;8.822;2024-03-22T00:46:08;5.23;;;4.00;;
8419;SDS011;4247;48.550;8.822;2024-03-22T00:48:35;9.30;;;4.63;;
8419;SDS011;4247;48.550;8.822;2024-03-22T00:51:02;4.83;;;4.07;;
8419;SDS011;4247;48.550;8.822;2024-03-22T00:53:29;4.13;;;3.70;;
8419;SDS011;4247;48.550;8.822;2024-03-22T00:55:55;3.83;;;3.40;;
8419;SDS011;4247;48.550;8.822;2024-03-22T00:58:23;5.23;;;3.70;;
8419;SDS011;4247;48.550;8.822;2024-03-22T01:00:51;5.03;;;3.60;;
8419;SDS011;4247;48.550;8.822;2024-03-22T01:03:16;4.23;;;3.60;;
8419;SDS011;4247;48.550;8.822;2024-03-22T01:05:43;4.90;;;4.00;;
8419;SDS011;4247;48.550;8.822;2024-03-22T01:08:11;5.40;;;4.03;;
8419;SDS011;4247;48.550;8.822;2024-03-22T01:10:37;9.73;;;3.97;;
8419;SDS011;4247;48.550;8.822;2024-03-22T01:13:03;5.87;;;4.60;;
8419;SDS011;4247;48.550;8.822;2024-03-22T01:15:30;7.47;;;4.20;;
8419;SDS011;4247;48.550;8.822;2024-03-22T01:17:55;3.90;;;3.43;;
8419;SDS011;4247;48.550;8.822;2024-03-22T01:20:22;4.90;;;3.73;;
8419;SDS011;4247;48.550;8.822;2024-03-22T01:22:48;3.70;;;3.30;;
8419;SDS011;4247;48.550;8.822;2024-03-22T01:25:16;7.13;;;3.73;;
8419;SDS011;4247;48.550;8.822;2024-03-22T01:27:42;4.07;;;3.23;;
8419;SDS011;4247;48.550;8.822;2024-03-22T01:30:09;5.30;;;3.73;;
8419;SDS011;4247;48.550;8.822;2024-03-22T01:32:36;6.40;;;3.20;;
8419;SDS011;4247;48.550;8.822;2024-03-22T01:35:03;4.00;;;3.43;;
8419;SDS011;4247;48.550;8.822;2024-03-22T01:37:29;3.83;;;2.87;;
8419;SDS011;4247;48.550;8.822;2024-03-22T01:39:56;3.77;;;3.17;;
8419;SDS011;4247;48.550;8.822;2024-03-22T01:42:24;4.40;;;3.13;;
8419;SDS011;4247;48.550;8.822;2024-03-22T01:44:50;3.83;;;2.93;;
8419;SDS011;4247;48.550;8.822;2024-03-22T01:47:16;3.93;;;3.50;;
8419;SDS011;4247;48.550;8.822;2024-03-22T01:49:43;4.43;;;3.27;;
8419;SDS011;4247;48.550;8.822;2024-03-22T01:52:09;4.90;;;3.37;;
8419;SDS011;4247;48.550;8.822;2024-03-22T01:54:36;3.17;;;2.87;;
8419;SDS011;4247;48.550;8.822;2024-03-22T01:57:02;4.17;;;2.90;;
8419;SDS011;4247;48.550;8.822;2024-03-22T01:59:30;3.13;;;2.20;;
8419;SDS011;4247;48.550;8.822;2024-03-22T02:01:57;8.50;;;2.77;;
8419;SDS011;4247;48.550;8.822;2024-03-22T02:04:24;5.03;;;3.40;;
8419;SDS011;4247;48.550;8.822;2024-03-22T02:06:49;3.80;;;3.07;;
8419;SDS011;4247;48.550;8.822;2024-03-22T02:09:17;3.07;;;2.77;;
8419;SDS011;4247;48.550;8.822;2024-03-22T02:11:44;6.43;;;3.43;;
8419;SDS011;4247;48.550;8.822;2024-03-22T02:14:11;4.17;;;3.13;;
8419;SDS011;4247;48.550;8.822;2024-03-22T02:16:40;8.30;;;3.57;;
8419;SDS011;4247;48.550;8.822;2024-03-22T02:19:07;6.43;;;3.33;;
8419;SDS011;4247;48.550;8.822;2024-03-22T02:21:33;5.57;;;4.23;;
8419;SDS011;4247;48.550;8.822;2024-03-22T02:24:01;3.97;;;3.20;;
8419;SDS011;4247;48.550;8.822;2024-03-22T02:26:27;3.87;;;3.37;;
8419;SDS011;4247;48.550;8.822;2024-03-22T02:28:54;5.77;;;4.13;;
8419;SDS011;4247;48.550;8.822;2024-03-22T02:31:19;8.27;;;4.23;;
8419;SDS011;4247;48.550;8.822;2024-03-22T02:33:46;3.77;;;3.43;;
8419;SDS011;4247;48.550;8.822;2024-03-22T02:36:12;5.40;;;3.73;;
8419;SDS011;4247;48.550;8.822;2024-03-22T02:38:38;4.03;;;3.67;;
8419;SDS011;4247;48.550;8.822;2024-03-22T02:41:05;5.27;;;3.57;;
8419;SDS011;4247;48.550;8.822;2024-03-22T02:43:32;2.80;;;2.57;;
8419;SDS011;4247;48.550;8.822;2024-03-22T02:45:58;5.53;;;4.10;;
8419;SDS011;4247;48.550;8.822;2024-03-22T02:48:24;4.40;;;4.00;;
8419;SDS011;4247;48.550;8.822;2024-03-22T02:50:54;9.77;;;4.17;;
8419;SDS011;4247;48.550;8.822;2024-03-22T02:53:22;5.67;;;3.77;;
8419;SDS011;4247;48.550;8.822;2024-03-22T02:55:47;8.40;;;4.90;;
8419;SDS011;4247;48.550;8.822;2024-03-22T02:58:16;5.63;;;3.97;;
8419;SDS011;4247;48.550;8.822;2024-03-22T03:00:42;4.40;;;4.00;;
8419;SDS011;4247;48.550;8.822;2024-03-22T03:03:09;6.20;;;4.53;;
8419;SDS011;4247;48.550;8.822;2024-03-22T03:05:34;6.47;;;3.97;;
8419;SDS011;4247;48.550;8.822;2024-03-22T03:08:01;4.33;;;3.87;;
8419;SDS011;4247;48.550;8.822;2024-03-22T03:10:28;6.10;;;3.60;;
8419;SDS011;4247;48.550;8.822;2024-03-22T03:12:55;7.73;;;4.07;;
8419;SDS011;4247;48.550;8.822;2024-03-22T03:15:22;4.97;;;3.57;;
8419;SDS011;4247;48.550;8.822;2024-03-22T03:17:49;6.03;;;3.80;;
8419;SDS011;4247;48.550;8.822;2024-03-22T03:20:16;4.40;;;3.50;;
8419;SDS011;4247;48.550;8.822;2024-03-22T03:22:43;7.97;;;5.10;;
8419;SDS011;4247;48.550;8.822;2024-03-22T03:25:09;3.97;;;3.57;;
8419;SDS011;4247;48.550;8.822;2024-03-22T03:27:36;8.70;;;4.10;;
8419;SDS011;4247;48.550;8.822;2024-03-22T03:30:02;5.93;;;4.23;;
8419;SDS011;4247;48.550;8.822;2024-03-22T03:32:31;3.60;;;3.07;;
8419;SDS011;4247;48.550;8.822;2024-03-22T03:34:57;5.87;;;4.00;;
8419;SDS011;4247;48.550;8.822;2024-03-22T03:37:23;5.30;;;3.63;;
8419;SDS011;4247;48.550;8.822;2024-03-22T03:39:49;7.10;;;3.97;;
8419;SDS011;4247;48.550;8.822;2024-03-22T03:42:16;5.40;;;3.27;;
8419;SDS011;4247;48.550;8.822;2024-03-22T03:44:41;7.97;;;3.90;;
8419;SDS011;4247;48.550;8.822;2024-03-22T03:47:08;9.40;;;5.00;;
8419;SDS011;4247;48.550;8.822;2024-03-22T03:49:35;7.83;;;4.43;;
8419;SDS011;4247;48.550;8.822;2024-03-22T03:52:02;5.97;;;4.20;;
8419;SDS011;4247;48.550;8.822;2024-03-22T03:54:28;5.37;;;3.63;;
8419;SDS011;4247;48.550;8.822;2024-03-22T03:56:55;6.97;;;3.77;;
8419;SDS011;4247;48.550;8.822;2024-03-22T03:59:20;6.70;;;4.43;;
8419;SDS011;4247;48.550;8.822;2024-03-22T04:01:47;3.93;;;3.30;;
8419;SDS011;4247;48.550;8.822;2024-03-22T04:04:13;4.47;;;3.53;;
8419;SDS011;4247;48.550;8.822;2024-03-22T04:06:41;5.47;;;3.90;;
8419;SDS011;4247;48.550;8.822;2024-03-22T04:09:08;4.60;;;3.50;;
8419;SDS011;4247;48.550;8.822;2024-03-22T04:11:35;3.77;;;3.47;;
8419;SDS011;4247;48.550;8.822;2024-03-22T04:14:02;4.97;;;4.20;;
8419;SDS011;4247;48.550;8.822;2024-03-22T04:16:30;5.33;;;3.97;;
8419;SDS011;4247;48.550;8.822;2024-03-22T04:18:56;7.60;;;4.50;;
8419;SDS011;4247;48.550;8.822;2024-03-22T04:21:22;7.53;;;3.87;;
8419;SDS011;4247;48.550;8.822;2024-03-22T04:23:50;10.33;;;4.60;;
8419;SDS011;4247;48.550;8.822;2024-03-22T04:26:16;8.30;;;5.23;;
8419;SDS011;4247;48.550;8.822;2024-03-22T04:28:42;6.60;;;4.67;;
8419;SDS011;4247;48.550;8.822;2024-03-22T04:31:09;4.47;;;3.83;;
8419;SDS011;4247;48.550;8.822;2024-03-22T04:33:35;6.10;;;4.63;;
8419;SDS011;4247;48.550;8.822;2024-03-22T04:36:03;7.20;;;3.93;;
8419;SDS011;4247;48.550;8.822;2024-03-22T04:38:29;9.87;;;4.13;;
8419;SDS011;4247;48.550;8.822;2024-03-22T04:40:59;8.07;;;5.70;;
8419;SDS011;4247;48.550;8.822;2024-03-22T04:43:26;7.93;;;4.97;;
8419;SDS011;4247;48.550;8.822;2024-03-22T04:45:53;9.47;;;4.47;;
8419;SDS011;4247;48.550;8.822;2024-03-22T04:48:20;9.17;;;4.93;;
8419;SDS011;4247;48.550;8.822;2024-03-22T04:50:48;6.83;;;5.33;;
8419;SDS011;4247;48.550;8.822;2024-03-22T04:53:15;5.67;;;3.87;;
8419;SDS011;4247;48.550;8.822;2024-03-22T04:55:42;5.90;;;3.87;;
8419;SDS011;4247;48.550;8.822;2024-03-22T04:58:12;5.63;;;4.27;;
8419;SDS011;4247;48.550;8.822;2024-03-22T05:00:40;9.10;;;4.40;;
8419;SDS011;4247;48.550;8.822;2024-03-22T05:03:07;4.90;;;4.07;;
8419;SDS011;4247;48.550;8.822;2024-03-22T05:05:33;8.63;;;4.37;;
8419;SDS011;4247;48.550;8.822;2024-03-22T05:07:59;8.23;;;4.73;;
8419;SDS011;4247;48.550;8.822;2024-03-22T05:10:26;6.97;;;4.93;;
8419;SDS011;4247;48.550;8.822;2024-03-22T05:12:52;7.00;;;4.73;;
8419;SDS011;4247;48.550;8.822;2024-03-22T05:15:20;6.17;;;4.93;;
8419;SDS011;4247;48.550;8.822;2024-03-22T05:17:46;6.87;;;4.63;;
8419;SDS011;4247;48.550;8.822;2024-03-22T05:20:13;5.33;;;3.83;;
8419;SDS011;4247;48.550;8.822;2024-03-22T05:22:39;13.27;;;5.03;;
8419;SDS011;4247;48.550;8.822;2024-03-22T05:25:06;4.90;;;4.17;;
8419;SDS011;4247;48.550;8.822;2024-03-22T05:27:33;5.97;;;5.00;;
8419;SDS011;4247;48.550;8.822;2024-03-22T05:30:00;8.37;;;4.67;;
8419;SDS011;4247;48.550;8.822;2024-03-22T05:32:27;10.00;;;4.60;;
8419;SDS011;4247;48.550;8.822;2024-03-22T05:34:54;9.67;;;5.33;;
8419;SDS011;4247;48.550;8.822;2024-03-22T05:37:20;8.67;;;4.47;;
8419;SDS011;4247;48.550;8.822;2024-03-22T05:39:46;9.30;;;3.70;;
8419;SDS011;4247;48.550;8.822;2024-03-22T05:42:12;9.70;;;4.33;;
8419;SDS011;4247;48.550;8.822;2024-03-22T05:44:39;8.60;;;3.83;;
8419;SDS011;4247;48.550;8.822;2024-03-22T05:47:05;5.47;;;3.87;;
8419;SDS011;4247;48.550;8.822;2024-03-22T05:49:33;6.00;;;3.43;;
8419;SDS011;4247;48.550;8.822;2024-03-22T05:51:59;6.67;;;4.60;;
8419;SDS011;4247;48.550;8.822;2024-03-22T05:54:25;7.17;;;4.43;;
8419;SDS011;4247;48.550;8.822;2024-03-22T05:56:51;5.87;;;4.27;;
8419;SDS011;4247;48.550;8.822;2024-03-22T05:59:18;8.57;;;4.83;;
8419;SDS011;4247;48.550;8.822;2024-03-22T06:01:43;4.10;;;3.73;;
8419;SDS011;4247;48.550;8.822;2024-03-22T06:04:10;6.83;;;3.57;;
8419;SDS011;4247;48.550;8.822;2024-03-22T06:06:37;5.47;;;3.43;;
8419;SDS011;4247;48.550;8.822;2024-03-22T06:09:04;5.90;;;3.20;;
8419;SDS011;4247;48.550;8.822;2024-03-22T06:11:33;4.57;;;3.67;;
8419;SDS011;4247;48.550;8.822;2024-03-22T06:14:00;5.80;;;3.37;;
8419;SDS011;4247;48.550;8.822;2024-03-22T06:16:26;3.73;;;3.33;;
8419;SDS011;4247;48.550;8.822;2024-03-22T06:18:53;7.07;;;3.10;;
8419;SDS011;4247;48.550;8.822;2024-03-22T06:21:18;4.40;;;4.00;;
8419;SDS011;4247;48.550;8.822;2024-03-22T06:23:48;5.73;;;3.60;;
8419;SDS011;4247;48.550;8.822;2024-03-22T06:26:14;7.47;;;4.17;;
8419;SDS011;4247;48.550;8.822;2024-03-22T06:28:41;10.60;;;4.33;;
8419;SDS011;4247;48.550;8.822;2024-03-22T06:31:07;7.00;;;3.40;;
8419;SDS011;4247;48.550;8.822;2024-03-22T06:33:33;22.00;;;4.43;;
8419;SDS011;4247;48.550;8.822;2024-03-22T06:35:59;6.27;;;3.67;;
8419;SDS011;4247;48.550;8.822;2024-03-22T06:38:26;8.33;;;5.23;;
8419;SDS011;4247;48.550;8.822;2024-03-22T06:40:53;5.17;;;4.13;;
8419;SDS011;4247;48.550;8.822;2024-03-22T06:43:20;6.47;;;4.93;;
8419;SDS011;4247;48.550;8.822;2024-03-22T06:45:45;11.10;;;5.73;;
8419;SDS011;4247;48.550;8.822;2024-03-22T06:48:12;8.63;;;5.33;;
8419;SDS011;4247;48.550;8.822;2024-03-22T06:50:39;8.83;;;4.97;;
8419;SDS011;4247;48.550;8.822;2024-03-22T06:53:07;7.80;;;4.87;;
8419;SDS011;4247;48.550;8.822;2024-03-22T06:55:35;8.83;;;5.07;;
8419;SDS011;4247;48.550;8.822;2024-03-22T06:58:03;8.50;;;5.40;;
8419;SDS011;4247;48.550;8.822;2024-03-22T07:00:29;7.33;;;5.20;;
8419;SDS011;4247;48.550;8.822;2024-03-22T07:02:59;6.63;;;4.83;;
8419;SDS011;4247;48.550;8.822;2024-03-22T07:05:27;8.10;;;5.13;;
8419;SDS011;4247;48.550;8.822;2024-03-22T07:07:54;8.47;;;5.67;;
8419;SDS011;4247;48.550;8.822;2024-03-22T07:10:22;4.73;;;4.23;;
8419;SDS011;4247;48.550;8.822;2024-03-22T07:12:52;5.13;;;4.63;;
8419;SDS011;4247;48.550;8.822;2024-03-22T07:15:20;5.43;;;4.80;;
8419;SDS011;4247;48.550;8.822;2024-03-22T07:17:47;7.30;;;4.97;;
8419;SDS011;4247;48.550;8.822;2024-03-22T07:20:13;7.97;;;5.23;;
8419;SDS011;4247;48.550;8.822;2024-03-22T07:22:39;6.27;;;4.50;;
8419;SDS011;4247;48.550;8.822;2024-03-22T07:25:05;7.90;;;5.27;;
8419;SDS011;4247;48.550;8.822;2024-03-22T07:27:34;9.33;;;5.00;;
8419;SDS011;4247;48.550;8.822;2024-03-22T07:30:00;7.63;;;5.10;;
8419;SDS011;4247;48.550;8.822;2024-03-22T07:32:28;10.70;;;5.17;;
8419;SDS011;4247;48.550;8.822;2024-03-22T07:34:54;9.80;;;5.30;;
8419;SDS011;4247;48.550;8.822;2024-03-22T07:37:20;8.83;;;5.97;;
8419;SDS011;4247;48.550;8.822;2024-03-22T07:39:46;9.43;;;6.23;;
8419;SDS011;4247;48.550;8.822;2024-03-22T07:42:13;7.77;;;5.17;;
8419;SDS011;4247;48.550;8.822;2024-03-22T07:44:38;9.57;;;5.57;;
8419;SDS011;4247;48.550;8.822;2024-03-22T07:47:05;9.40;;;5.57;;
8419;SDS011;4247;48.550;8.822;2024-03-22T07:49:32;8.30;;;5.80;;
8419;SDS011;4247;48.550;8.822;2024-03-22T07:51:59;11.07;;;6.87;;
8419;SDS011;4247;48.550;8.822;2024-03-22T07:54:25;11.40;;;6.23;;
8419;SDS011;4247;48.550;8.822;2024-03-22T07:56:52;10.10;;;6.60;;
8419;SDS011;4247;48.550;8.822;2024-03-22T07:59:17;8.60;;;5.77;;
8419;SDS011;4247;48.550;8.822;2024-03-22T08:01:44;8.67;;;5.50;;
8419;SDS011;4247;48.550;8.822;2024-03-22T08:04:10;7.37;;;5.73;;
8419;SDS011;4247;48.550;8.822;2024-03-22T08:06:38;11.00;;;5.47;;
8419;SDS011;4247;48.550;8.822;2024-03-22T08:09:03;15.73;;;6.40;;
8419;SDS011;4247;48.550;8.822;2024-03-22T08:11:30;13.23;;;6.67;;
8419;SDS011;4247;48.550;8.822;2024-03-22T08:13:56;7.87;;;5.97;;
8419;SDS011;4247;48.550;8.822;2024-03-22T08:16:28;7.93;;;6.17;;
8419;SDS011;4247;48.550;8.822;2024-03-22T08:18:54;9.30;;;6.77;;
8419;SDS011;4247;48.550;8.822;2024-03-22T08:21:21;8.90;;;6.30;;
8419;SDS011;4247;48.550;8.822;2024-03-22T08:23:48;12.73;;;6.80;;
8419;SDS011;4247;48.550;8.822;2024-03-22T08:26:15;12.67;;;6.17;;
8419;SDS011;4247;48.550;8.822;2024-03-22T08:28:41;8.17;;;6.07;;
8419;SDS011;4247;48.550;8.822;2024-03-22T08:31:08;9.77;;;6.57;;
8419;SDS011;4247;48.550;8.822;2024-03-22T08:33:33;9.90;;;6.00;;
8419;SDS011;4247;48.550;8.822;2024-03-22T08:36:00;12.20;;;6.20;;
8419;SDS011;4247;48.550;8.822;2024-03-22T08:38:26;8.70;;;5.87;;
8419;SDS011;4247;48.550;8.822;2024-03-22T08:40:54;7.10;;;5.50;;
8419;SDS011;4247;48.550;8.822;2024-03-22T08:43:20;8.00;;;5.03;;
8419;SDS011;4247;48.550;8.822;2024-03-22T08:45:47;9.23;;;5.23;;
8419;SDS011;4247;48.550;8.822;2024-03-22T08:48:13;6.27;;;5.43;;
8419;SDS011;4247;48.550;8.822;2024-03-22T08:50:41;8.93;;;5.57;;
8419;SDS011;4247;48.550;8.822;2024-03-22T08:53:07;7.97;;;5.20;;
8419;SDS011;4247;48.550;8.822;2024-03-22T08:55:34;9.37;;;4.93;;
8419;SDS011;4247;48.550;8.822;2024-03-22T08:58:01;9.97;;;5.37;;
8419;SDS011;4247;48.550;8.822;2024-03-22T09:00:28;7.97;;;5.77;;
8419;SDS011;4247;48.550;8.822;2024-03-22T09:02:54;7.90;;;5.73;;
8419;SDS011;4247;48.550;8.822;2024-03-22T09:05:21;8.23;;;5.63;;
8419;SDS011;4247;48.550;8.822;2024-03-22T09:07:47;9.93;;;6.30;;
8419;SDS011;4247;48.550;8.822;2024-03-22T09:10:15;8.57;;;5.77;;
8419;SDS011;4247;48.550;8.822;2024-03-22T09:12:41;6.90;;;5.50;;
8419;SDS011;4247;48.550;8.822;2024-03-22T09:15:09;10.80;;;6.30;;
8419;SDS011;4247;48.550;8.822;2024-03-22T09:17:35;10.67;;;5.27;;
8419;SDS011;4247;48.550;8.822;2024-03-22T09:20:01;7.73;;;5.43;;
8419;SDS011;4247;48.550;8.822;2024-03-22T09:22:29;8.50;;;6.03;;
8419;SDS011;4247;48.550;8.822;2024-03-22T09:24:57;8.70;;;5.80;;
8419;SDS011;4247;48.550;8.822;2024-03-22T09:27:23;12.30;;;4.97;;
8419;SDS011;4247;48.550;8.822;2024-03-22T09:29:50;8.57;;;5.20;;
8419;SDS011;4247;48.550;8.822;2024-03-22T09:32:17;8.40;;;5.13;;
8419;SDS011;4247;48.550;8.822;2024-03-22T09:34:43;10.03;;;4.90;;
8419;SDS011;4247;48.550;8.822;2024-03-22T09:37:09;10.80;;;5.07;;
8419;SDS011;4247;48.550;8.822;2024-03-22T09:39:36;10.10;;;4.87;;
8419;SDS011;4247;48.550;8.822;2024-03-22T09:42:02;7.30;;;4.93;;
8419;SDS011;4247;48.550;8.822;2024-03-22T09:44:33;6.57;;;5.13;;
8419;SDS011;4247;48.550;8.822;2024-03-22T09:46:59;5.23;;;4.53;;
8419;SDS011;4247;48.550;8.822;2024-03-22T09:49:27;8.97;;;5.17;;
8419;SDS011;4247;48.550;8.822;2024-03-22T09:51:53;7.37;;;4.70;;
8419;SDS011;4247;48.550;8.822;2024-03-22T09:54:22;7.13;;;5.60;;
8419;SDS011;4247;48.550;8.822;2024-03-22T09:56:50;7.17;;;4.80;;
8419;SDS011;4247;48.550;8.822;2024-03-22T09:59:17;9.63;;;4.80;;
8419;SDS011;4247;48.550;8.822;2024-03-22T10:01:43;13.07;;;5.30;;
8419;SDS011;4247;48.550;8.822;2024-03-22T10:04:12;11.73;;;5.20;;
8419;SDS011;4247;48.550;8.822;2024-03-22T10:06:39;8.10;;;5.63;;
8419;SDS011;4247;48.550;8.822;2024-03-22T10:09:06;11.73;;;5.87;;
8419;SDS011;4247;48.550;8.822;2024-03-22T10:11:33;9.50;;;6.23;;
8419;SDS011;4247;48.550;8.822;2024-03-22T10:14:00;6.17;;;4.73;;
8419;SDS011;4247;48.550;8.822;2024-03-22T10:16:32;12.80;;;6.17;;
8419;SDS011;4247;48.550;8.822;2024-03-22T10:19:00;11.80;;;5.13;;
8419;SDS011;4247;48.550;8.822;2024-03-22T10:21:25;11.23;;;5.97;;
8419;SDS011;4247;48.550;8.822;2024-03-22T10:23:55;8.50;;;5.00;;
8419;SDS011;4247;48.550;8.822;2024-03-22T10:26:21;10.07;;;5.70;;
8419;SDS011;4247;48.550;8.822;2024-03-22T10:28:47;10.00;;;5.57;;
8419;SDS011;4247;48.550;8.822;2024-03-22T10:31:13;8.93;;;6.13;;
8419;SDS011;4247;48.550;8.822;2024-03-22T10:33:40;11.33;;;5.87;;
8419;SDS011;4247;48.550;8.822;2024-03-22T10:36:06;9.33;;;5.90;;
8419;SDS011;4247;48.550;8.822;2024-03-22T10:38:36;6.47;;;4.57;;
8419;SDS011;4247;48.550;8.822;2024-03-22T10:41:05;5.10;;;3.33;;
8419;SDS011;4247;48.550;8.822;2024-03-22T10:43:32;5.37;;;2.73;;
8419;SDS011;4247;48.550;8.822;2024-03-22T10:46:00;6.37;;;3.23;;
8419;SDS011;4247;48.550;8.822;2024-03-22T10:48:29;4.70;;;3.20;;
8419;SDS011;4247;48.550;8.822;2024-03-22T10:50:57;8.57;;;3.20;;
8419;SDS011;4247;48.550;8.822;2024-03-22T10:53:26;5.27;;;2.93;;
8419;SDS011;4247;48.550;8.822;2024-03-22T10:55:52;9.63;;;3.70;;
8419;SDS011;4247;48.550;8.822;2024-03-22T10:58:23;7.87;;;4.50;;
8419;SDS011;4247;48.550;8.822;2024-03-22T11:00:51;5.63;;;3.97;;
8419;SDS011;4247;48.550;8.822;2024-03-22T11:03:19;11.43;;;4.30;;
8419;SDS011;4247;48.550;8.822;2024-03-22T11:05:45;5.80;;;3.40;;
8419;SDS011;4247;48.550;8.822;2024-03-22T11:08:12;5.40;;;4.10;;
8419;SDS011;4247;48.550;8.822;2024-03-22T11:10:38;4.43;;;2.67;;
8419;SDS011;4247;48.550;8.822;2024-03-22T11:13:07;8.00;;;3.27;;
8419;SDS011;4247;48.550;8.822;2024-03-22T11:15:35;3.23;;;2.80;;
8419;SDS011;4247;48.550;8.822;2024-03-22T11:18:02;5.00;;;2.83;;
8419;SDS011;4247;48.550;8.822;2024-03-22T11:20:27;3.93;;;2.67;;
8419;SDS011;4247;48.550;8.822;2024-03-22T11:22:54;8.47;;;3.67;;
8419;SDS011;4247;48.550;8.822;2024-03-22T11:25:21;4.93;;;2.87;;
8419;SDS011;4247;48.550;8.822;2024-03-22T11:27:48;3.60;;;1.57;;
8419;SDS011;4247;48.550;8.822;2024-03-22T11:30:14;3.03;;;1.70;;
8419;SDS011;4247;48.550;8.822;2024-03-22T11:32:43;3.77;;;1.53;;
8419;SDS011;4247;48.550;8.822;2024-03-22T11:35:10;7.43;;;1.67;;
8419;SDS011;4247;48.550;8.822;2024-03-22T11:37:38;6.90;;;1.83;;
8419;SDS011;4247;48.550;8.822;2024-03-22T11:40:04;2.17;;;1.63;;
8419;SDS011;4247;48.550;8.822;2024-03-22T11:42:33;1.37;;;1.27;;
8419;SDS011;4247;48.550;8.822;2024-03-22T11:45:00;3.93;;;1.43;;
8419;SDS011;4247;48.550;8.822;2024-03-22T11:47:28;4.60;;;1.70;;
8419;SDS011;4247;48.550;8.822;2024-03-22T11:49:55;2.17;;;1.53;;
8419;SDS011;4247;48.550;8.822;2024-03-22T11:52:24;2.97;;;1.13;;
8419;SDS011;4247;48.550;8.822;2024-03-22T11:54:50;3.30;;;1.23;;
8419;SDS011;4247;48.550;8.822;2024-03-22T11:57:18;3.47;;;1.33;;
8419;SDS011;4247;48.550;8.822;2024-03-22T11:59:45;2.00;;;1.40;;
8419;SDS011;4247;48.550;8.822;2024-03-22T12:02:12;1.83;;;1.73;;
8419;SDS011;4247;48.550;8.822;2024-03-22T12:04:40;1.97;;;1.60;;
8419;SDS011;4247;48.550;8.822;2024-03-22T12:07:10;3.70;;;1.83;;
8419;SDS011;4247;48.550;8.822;2024-03-22T12:09:37;7.63;;;1.73;;
8419;SDS011;4247;48.550;8.822;2024-03-22T12:12:04;4.23;;;1.70;;
8419;SDS011;4247;48.550;8.822;2024-03-22T12:14:31;2.40;;;1.43;;
8419;SDS011;4247;48.550;8.822;2024-03-22T12:16:58;2.40;;;1.60;;
8419;SDS011;4247;48.550;8.822;2024-03-22T12:19:24;1.80;;;1.53;;
8419;SDS011;4247;48.550;8.822;2024-03-22T12:21:51;3.03;;;1.60;;
8419;SDS011;4247;48.550;8.822;2024-03-22T12:24:18;2.77;;;1.13;;
8419;SDS011;4247;48.550;8.822;2024-03-22T12:26:45;2.90;;;0.97;;
8419;SDS011;4247;48.550;8.822;2024-03-22T12:29:10;3.93;;;1.30;;
8419;SDS011;4247;48.550;8.822;2024-03-22T12:31:38;3.63;;;1.30;;
8419;SDS011;4247;48.550;8.822;2024-03-22T12:34:04;1.67;;;1.33;;
8419;SDS011;4247;48.550;8.822;2024-03-22T12:36:31;2.93;;;1.07;;
8419;SDS011;4247;48.550;8.822;2024-03-22T12:38:57;2.10;;;1.17;;
8419;SDS011;4247;48.550;8.822;2024-03-22T12:41:25;0.80;;;0.80;;
8419;SDS011;4247;48.550;8.822;2024-03-22T12:43:52;2.37;;;0.93;;
8419;SDS011;4247;48.550;8.822;2024-03-22T12:46:18;1.97;;;1.10;;
8419;SDS011;4247;48.550;8.822;2024-03-22T12:48:45;14.23;;;1.43;;
8419;SDS011;4247;48.550;8.822;2024-03-22T12:51:12;1.43;;;1.10;;
8419;SDS011;4247;48.550;8.822;2024-03-22T12:53:38;0.80;;;0.80;;
8419;SDS011;4247;48.550;8.822;2024-03-22T12:56:05;2.93;;;0.73;;
8419;SDS011;4247;48.550;8.822;2024-03-22T12:58:32;0.60;;;0.50;;
8419;SDS011;4247;48.550;8.822;2024-03-22T13:00:59;0.57;;;0.57;;
8419;SDS011;4247;48.550;8.822;2024-03-22T13:03:26;0.30;;;0.30;;
8419;SDS011;4247;48.550;8.822;2024-03-22T13:05:52;1.40;;;0.40;;
8419;SDS011;4247;48.550;8.822;2024-03-22T13:08:18;0.40;;;0.40;;
8419;SDS011;4247;48.550;8.822;2024-03-22T13:10:45;0.43;;;0.33;;
8419;SDS011;4247;48.550;8.822;2024-03-22T13:13:11;0.40;;;0.40;;
8419;SDS011;4247;48.550;8.822;2024-03-22T13:15:42;0.40;;;0.37;;
8419;SDS011;4247;48.550;8.822;2024-03-22T13:18:08;0.63;;;0.30;;
8419;SDS011;4247;48.550;8.822;2024-03-22T13:20:35;0.33;;;0.30;;
8419;SDS011;4247;48.550;8.822;2024-03-22T13:23:01;0.40;;;0.30;;
8419;SDS011;4247;48.550;8.822;2024-03-22T13:25:28;1.20;;;0.40;;
8419;SDS011;4247;48.550;8.822;2024-03-22T13:27:54;1.27;;;0.50;;
8419;SDS011;4247;48.550;8.822;2024-03-22T13:30:21;1.80;;;0.37;;
8419;SDS011;4247;48.550;8.822;2024-03-22T13:32:48;1.40;;;0.30;;
8419;SDS011;4247;48.550;8.822;2024-03-22T13:35:15;0.80;;;0.40;;
8419;SDS011;4247;48.550;8.822;2024-03-22T13:37:41;0.53;;;0.50;;
8419;SDS011;4247;48.550;8.822;2024-03-22T13:40:07;0.47;;;0.40;;
8419;SDS011;4247;48.550;8.822;2024-03-22T13:42:34;0.93;;;0.47;;
8419;SDS011;4247;48.550;8.822;2024-03-22T13:45:01;0.57;;;0.47;;
8419;SDS011;4247;48.550;8.822;2024-03-22T13:47:26;3.07;;;0.50;;
8419;SDS011;4247;48.550;8.822;2024-03-22T13:49:55;1.57;;;0.37;;
8419;SDS011;4247;48.550;8.822;2024-03-22T13:52:21;0.40;;;0.40;;
8419;SDS011;4247;48.550;8.822;2024-03-22T13:54:47;0.43;;;0.43;;
8419;SDS011;4247;48.550;8.822;2024-03-22T13:57:15;0.47;;;0.30;;
8419;SDS011;4247;48.550;8.822;2024-03-22T13:59:41;0.97;;;0.60;;
8419;SDS011;4247;48.550;8.822;2024-03-22T14:02:07;0.70;;;0.50;;
8419;SDS011;4247;48.550;8.822;2024-03-22T14:04:34;1.13;;;0.73;;
8419;SDS011;4247;48.550;8.822;2024-03-22T14:07:01;6.67;;;0.40;;
8419;SDS011;4247;48.550;8.822;2024-03-22T14:09:30;1.07;;;0.30;;
8419;SDS011;4247;48.550;8.822;2024-03-22T14:11:55;3.70;;;0.50;;
8419;SDS011;4247;48.550;8.822;2024-03-22T14:14:22;0.30;;;0.30;;
8419;SDS011;4247;48.550;8.822;2024-03-22T14:16:49;0.93;;;0.40;;
8419;SDS011;4247;48.550;8.822;2024-03-22T14:19:15;0.47;;;0.40;;
8419;SDS011;4247;48.550;8.822;2024-03-22T14:21:43;1.33;;;0.50;;
8419;SDS011;4247;48.550;8.822;2024-03-22T14:24:11;1.53;;;0.40;;
8419;SDS011;4247;48.550;8.822;2024-03-22T14:26:37;0.57;;;0.53;;
8419;SDS011;4247;48.550;8.822;2024-03-22T14:29:07;0.50;;;0.30;;
8419;SDS011;4247;48.550;8.822;2024-03-22T14:31:33;0.40;;;0.40;;
8419;SDS011;4247;48.550;8.822;2024-03-22T14:34:00;0.43;;;0.43;;
8419;SDS011;4247;48.550;8.822;2024-03-22T14:36:26;0.30;;;0.30;;
8419;SDS011;4247;48.550;8.822;2024-03-22T14:38:53;0.83;;;0.50;;
8419;SDS011;4247;48.550;8.822;2024-03-22T14:41:20;3.00;;;0.90;;
8419;SDS011;4247;48.550;8.822;2024-03-22T14:43:48;1.37;;;0.40;;
8419;SDS011;4247;48.550;8.822;2024-03-22T14:46:14;0.70;;;0.30;;
8419;SDS011;4247;48.550;8.822;2024-03-22T14:48:40;0.63;;;0.40;;
8419;SDS011;4247;48.550;8.822;2024-03-22T14:51:07;1.80;;;0.50;;
8419;SDS011;4247;48.550;8.822;2024-03-22T14:53:34;0.67;;;0.40;;
8419;SDS011;4247;48.550;8.822;2024-03-22T14:56:01;0.50;;;0.50;;
8419;SDS011;4247;48.550;8.822;2024-03-22T14:58:31;0.43;;;0.37;;
8419;SDS011;4247;48.550;8.822;2024-03-22T15:00:57;0.50;;;0.50;;
8419;SDS011;4247;48.550;8.822;2024-03-22T15:03:26;2.17;;;0.50;;
8419;SDS011;4247;48.550;8.822;2024-03-22T15:05:52;0.90;;;0.30;;
8419;SDS011;4247;48.550;8.822;2024-03-22T15:08:19;0.97;;;0.33;;
8419;SDS011;4247;48.550;8.822;2024-03-22T15:10:46;0.25;;;0.25;;
8419;SDS011;4247;48.550;8.822;2024-03-22T15:13:14;0.40;;;0.40;;